Time;durP1;ratioP1;P1;durP2;ratioP2;P2;SDS_P1;SDS_P2;PMS_P1;PMS_P2;Temp;Humidity;BMP_temperature;BMP_pressure;BME280_temperature;BME280_humidity;BME280_pressure;Samples;Min_cycle;Max_cycle;Signal;HPM_P1;HPM_P2
2022/07/07 00:02:05;;;;;;;4.35;1.23;;;;;;;17.71;100.00;101945.41;5014007;28;20046;-34
2022/07/07 00:04:33;;;;;;;5.63;1.20;;;;;;;17.70;100.00;101936.13;5014245;28;20054;-30
2022/07/07 00:07:01;;;;;;;5.88;1.30;;;;;;;17.67;100.00;101936.75;5014907;28;20096;-33
2022/07/07 00:09:30;;;;;;;6.45;1.58;;;;;;;17.64;100.00;101930.88;5015178;28;20060;-31
2022/07/07 00:11:59;;;;;;;7.05;1.58;;;;;;;17.62;100.00;101930.38;5013684;28;20140;-35
2022/07/07 00:14:28;;;;;;;7.30;1.45;;;;;;;17.61;100.00;101923.03;5014858;28;20081;-30
2022/07/07 00:16:56;;;;;;;6.22;1.40;;;;;;;17.61;100.00;101929.53;5014309;28;20460;-30
2022/07/07 00:19:24;;;;;;;7.22;1.27;;;;;;;17.60;100.00;101915.72;5014071;28;20523;-29
2022/07/07 00:21:52;;;;;;;8.50;1.45;;;;;;;17.58;100.00;101918.91;5014380;28;20081;-33
2022/07/07 00:24:20;;;;;;;6.38;1.30;;;;;;;17.56;100.00;101921.22;5014681;28;20129;-30
2022/07/07 00:26:48;;;;;;;8.57;1.67;;;;;;;17.56;100.00;101918.38;5013728;28;20058;-31
2022/07/07 00:29:19;;;;;;;8.20;1.30;;;;;;;17.55;100.00;101917.56;5018642;28;20058;-33
2022/07/07 00:31:47;;;;;;;4.82;1.20;;;;;;;17.54;100.00;101913.06;5013711;28;20057;-35
2022/07/07 00:34:14;;;;;;;10.40;1.33;;;;;;;17.52;100.00;101914.53;5014490;28;20068;-31
2022/07/07 00:36:43;;;;;;;6.65;1.88;;;;;;;17.54;100.00;101915.88;5014139;28;20419;-30
2022/07/07 00:39:12;;;;;;;7.80;1.52;;;;;;;17.56;100.00;101909.94;4997728;28;20084;-31
2022/07/07 00:41:41;;;;;;;7.00;1.38;;;;;;;17.59;100.00;101892.31;5014449;28;20081;-36
2022/07/07 00:44:11;;;;;;;9.20;1.73;;;;;;;17.61;100.00;101895.66;5013561;28;20065;-31
2022/07/07 00:46:45;;;;;;;8.43;1.67;;;;;;;17.63;100.00;101887.69;5013818;28;20736;-32
2022/07/07 00:49:14;;;;;;;8.00;1.50;;;;;;;17.64;100.00;101885.72;5013243;28;20123;-29
2022/07/07 00:51:43;;;;;;;7.97;2.00;;;;;;;17.66;100.00;101886.25;5014241;28;20128;-35
2022/07/07 00:54:12;;;;;;;11.25;2.05;;;;;;;17.69;100.00;101899.75;5013645;28;20402;-31
2022/07/07 00:56:39;;;;;;;11.88;1.98;;;;;;;17.68;100.00;101892.44;5014000;28;20411;-34
2022/07/07 00:59:08;;;;;;;8.77;1.75;;;;;;;17.69;100.00;101888.44;5010417;28;20046;-29
2022/07/07 01:01:38;;;;;;;14.10;1.95;;;;;;;17.71;100.00;101888.97;5013322;28;20077;-35
2022/07/07 01:04:09;;;;;;;8.27;1.95;;;;;;;17.72;100.00;101880.16;5013497;28;20058;-32
2022/07/07 01:06:37;;;;;;;8.60;2.10;;;;;;;17.72;100.00;101885.81;5013988;28;20068;-29
2022/07/07 01:09:05;;;;;;;10.18;2.22;;;;;;;17.73;100.00;101881.00;5012763;28;20053;-31
2022/07/07 01:11:47;;;;;;;7.82;1.88;;;;;;;17.74;100.00;101882.66;5014016;28;20049;-39
2022/07/07 01:14:15;;;;;;;11.00;1.80;;;;;;;17.71;100.00;101872.84;5012170;28;20419;-35
2022/07/07 01:16:46;;;;;;;8.32;1.50;;;;;;;17.70;100.00;101881.66;5012319;28;20050;-36
2022/07/07 01:19:16;;;;;;;10.07;2.13;;;;;;;17.69;100.00;101886.47;5020419;28;20133;-37
2022/07/07 01:21:52;;;;;;;12.25;2.42;;;;;;;17.63;100.00;101890.53;5011331;28;20503;-29
2022/07/07 01:24:23;;;;;;;6.13;1.42;;;;;;;17.54;100.00;101878.38;5011389;28;20064;-34
2022/07/07 01:26:51;;;;;;;8.57;1.63;;;;;;;17.45;100.00;101880.28;5011857;28;20038;-31
2022/07/07 01:29:19;;;;;;;10.32;1.80;;;;;;;17.39;100.00;101888.03;5010954;28;20046;-34
2022/07/07 01:31:46;;;;;;;8.68;1.55;;;;;;;17.36;100.00;101883.06;5012854;28;20414;-30
2022/07/07 01:34:14;;;;;;;9.80;1.77;;;;;;;17.33;100.00;101889.31;5013230;28;20129;-30
2022/07/07 01:36:42;;;;;;;9.32;1.85;;;;;;;17.30;100.00;101889.97;5012671;28;20052;-31
2022/07/07 01:39:10;;;;;;;12.65;1.77;;;;;;;17.28;100.00;101882.97;5012880;28;20058;-30
2022/07/07 01:41:39;;;;;;;8.45;1.73;;;;;;;17.26;100.00;101885.28;5012426;28;20046;-29
2022/07/07 01:44:07;;;;;;;11.68;1.73;;;;;;;17.24;100.00;101885.59;5012159;28;20050;-30
2022/07/07 01:46:34;;;;;;;7.85;1.92;;;;;;;17.22;100.00;101887.88;5012934;28;20498;-32
2022/07/07 01:49:02;;;;;;;8.88;1.85;;;;;;;17.20;100.00;101885.38;5012019;28;20076;-34
2022/07/07 01:51:30;;;;;;;11.43;2.17;;;;;;;17.20;100.00;101887.38;5012327;28;20136;-31
2022/07/07 01:53:58;;;;;;;7.95;1.60;;;;;;;17.19;100.00;101882.88;5013019;28;20046;-33
2022/07/07 01:56:26;;;;;;;9.25;1.50;;;;;;;17.17;100.00;101885.22;5012032;28;20045;-35
2022/07/07 01:58:55;;;;;;;10.52;1.75;;;;;;;17.16;100.00;101890.03;5012844;28;20046;-30
2022/07/07 02:01:24;;;;;;;8.00;1.45;;;;;;;17.14;100.00;101886.69;5012842;28;20050;-34
2022/07/07 02:03:51;;;;;;;8.57;1.60;;;;;;;17.12;100.00;101885.34;5012268;28;20077;-29
2022/07/07 02:06:19;;;;;;;11.23;1.73;;;;;;;17.11;100.00;101892.97;5012518;28;20502;-33
2022/07/07 02:08:47;;;;;;;10.63;2.15;;;;;;;17.09;100.00;101888.78;5012868;28;20136;-34
2022/07/07 02:11:15;;;;;;;11.05;2.22;;;;;;;17.07;100.00;101882.63;5011500;28;20049;-30
2022/07/07 02:13:45;;;;;;;10.57;1.65;;;;;;;17.07;100.00;101885.44;5012430;28;20049;-35
2022/07/07 02:16:17;;;;;;;7.28;1.27;;;;;;;17.06;100.00;101876.16;5012159;28;20369;-29
2022/07/07 02:18:46;;;;;;;10.77;1.50;;;;;;;17.03;100.00;101884.41;5011580;28;20056;-29
2022/07/07 02:21:16;;;;;;;6.35;1.20;;;;;;;16.99;100.00;101872.09;5012194;28;20524;-30
2022/07/07 02:23:46;;;;;;;5.75;1.23;;;;;;;16.95;100.00;101879.53;5012470;28;20050;-35
2022/07/07 02:26:15;;;;;;;9.02;1.67;;;;;;;16.93;100.00;101885.50;5011768;28;20050;-30
2022/07/07 02:28:43;;;;;;;8.25;1.10;;;;;;;16.94;100.00;101887.16;5012575;28;20057;-34
2022/07/07 02:31:11;;;;;;;7.88;1.40;;;;;;;16.93;100.00;101884.66;5011453;28;20046;-31
2022/07/07 02:33:41;;;;;;;8.30;0.90;;;;;;;16.90;100.00;101886.13;5012284;28;20049;-29
2022/07/07 02:36:09;;;;;;;10.57;1.25;;;;;;;16.89;100.00;101892.91;5012002;28;20054;-35
2022/07/07 02:38:38;;;;;;;8.20;1.15;;;;;;;16.87;100.00;101903.66;5000795;28;20052;-30
2022/07/07 02:41:07;;;;;;;9.40;1.40;;;;;;;16.86;100.00;101902.00;5005151;28;20054;-30
2022/07/07 02:43:35;;;;;;;12.00;1.77;;;;;;;16.86;100.00;101905.66;5012235;28;20426;-41
2022/07/07 02:46:03;;;;;;;8.80;1.75;;;;;;;16.86;100.00;101907.63;5011176;28;20064;-33
2022/07/07 02:48:32;;;;;;;6.28;1.48;;;;;;;16.83;100.00;101908.25;5008921;28;20060;-31
2022/07/07 02:51:01;;;;;;;7.20;1.60;;;;;;;16.80;100.00;101909.72;5011711;28;20060;-34
2022/07/07 02:53:29;;;;;;;8.15;1.33;;;;;;;16.78;100.00;101906.41;5011336;28;20048;-31
2022/07/07 02:55:57;;;;;;;10.63;1.73;;;;;;;16.76;100.00;101908.72;5012213;28;20120;-31
2022/07/07 02:58:25;;;;;;;9.02;1.50;;;;;;;16.72;100.00;101918.94;5011690;28;20060;-30
2022/07/07 03:00:54;;;;;;;7.07;1.38;;;;;;;16.70;100.00;101914.75;5011165;28;20062;-37
2022/07/07 03:03:23;;;;;;;12.38;2.15;;;;;;;16.68;100.00;101911.44;5010992;28;20041;-30
2022/07/07 03:05:51;;;;;;;8.10;1.17;;;;;;;16.67;100.00;101923.84;4993043;28;20050;-31
2022/07/07 03:08:20;;;;;;;10.15;1.50;;;;;;;16.60;100.00;101929.84;5010925;28;20050;-33
2022/07/07 03:10:54;;;;;;;8.20;1.35;;;;;;;16.52;100.00;101930.63;5012070;28;20042;-29
2022/07/07 03:13:22;;;;;;;9.27;1.42;;;;;;;16.51;100.00;101923.31;5010670;28;20418;-30
2022/07/07 03:15:49;;;;;;;12.23;1.52;;;;;;;16.52;100.00;101919.34;5011847;28;20052;-30
2022/07/07 03:18:17;;;;;;;6.97;1.50;;;;;;;16.54;100.00;101931.13;5011118;28;20046;-33
2022/07/07 03:20:46;;;;;;;8.55;1.45;;;;;;;16.53;100.00;101921.00;5011218;28;20060;-31
2022/07/07 03:23:13;;;;;;;11.32;1.67;;;;;;;16.52;100.00;101933.44;5011484;28;20041;-30
2022/07/07 03:25:43;;;;;;;11.60;1.95;;;;;;;16.48;100.00;101926.75;5011491;28;20084;-33
2022/07/07 03:28:10;;;;;;;12.18;1.70;;;;;;;16.46;100.00;101937.50;5010361;28;20104;-30
2022/07/07 03:30:38;;;;;;;9.70;1.42;;;;;;;16.46;100.00;101951.56;5011562;28;20082;-29
2022/07/07 03:33:06;;;;;;;12.88;1.80;;;;;;;16.44;100.00;101943.44;5011162;28;20057;-33
2022/07/07 03:35:34;;;;;;;10.85;1.50;;;;;;;16.44;100.00;101937.81;5010740;28;20562;-30
2022/07/07 03:38:02;;;;;;;9.05;1.63;;;;;;;16.45;100.00;101935.81;5010592;28;20553;-32
2022/07/07 03:40:29;;;;;;;7.03;1.50;;;;;;;16.44;100.00;101943.44;5011095;28;20042;-33
2022/07/07 03:42:59;;;;;;;11.25;2.13;;;;;;;16.45;100.00;101944.28;5009528;28;20046;-32
2022/07/07 03:45:27;;;;;;;7.15;1.95;;;;;;;16.45;100.00;101944.28;5010464;28;20066;-32
2022/07/07 03:47:54;;;;;;;11.48;1.67;;;;;;;16.45;100.00;101952.72;5010595;28;20561;-32
2022/07/07 03:50:22;;;;;;;11.98;1.63;;;;;;;16.46;100.00;101949.59;5010280;28;20121;-38
2022/07/07 03:52:50;;;;;;;11.68;1.80;;;;;;;16.49;100.00;101950.97;5011532;28;20088;-32
2022/07/07 03:55:18;;;;;;;11.57;1.95;;;;;;;16.51;100.00;101962.75;5009428;28;20494;-33
2022/07/07 03:57:46;;;;;;;8.00;1.67;;;;;;;16.51;100.00;101962.75;5009500;28;20054;-31
2022/07/07 04:00:16;;;;;;;9.38;1.90;;;;;;;16.50;100.00;101976.00;5011143;28;20141;-30
2022/07/07 04:02:43;;;;;;;11.55;2.25;;;;;;;16.44;100.00;101976.41;4991670;28;20105;-33
2022/07/07 04:05:11;;;;;;;11.32;1.30;;;;;;;16.29;100.00;101980.38;5010321;28;20100;-36
2022/07/07 04:07:39;;;;;;;5.40;1.13;;;;;;;16.14;100.00;101973.03;5011501;28;20081;-30
2022/07/07 04:10:08;;;;;;;7.57;1.50;;;;;;;16.04;100.00;101973.22;5010069;28;20057;-30
2022/07/07 04:12:36;;;;;;;7.22;1.80;;;;;;;15.97;100.00;101972.78;5011541;28;20058;-30
2022/07/07 04:15:04;;;;;;;6.13;1.38;;;;;;;15.93;100.00;101968.09;5014000;28;20486;-30
2022/07/07 04:17:34;;;;;;;8.48;1.30;;;;;;;15.91;100.00;101971.19;5014490;28;20058;-31
2022/07/07 04:20:02;;;;;;;8.88;1.98;;;;;;;15.89;100.00;101979.13;5014584;28;20052;-33
2022/07/07 04:22:30;;;;;;;7.32;1.60;;;;;;;15.87;100.00;101972.13;5014848;28;20049;-36
2022/07/07 04:24:58;;;;;;;8.40;1.45;;;;;;;15.88;100.00;101987.88;5013262;28;20050;-35
2022/07/07 04:27:25;;;;;;;9.60;1.75;;;;;;;15.89;100.00;101984.75;5014766;28;20096;-29
2022/07/07 04:29:53;;;;;;;8.20;1.63;;;;;;;15.89;100.00;101981.94;5014288;28;20049;-34
2022/07/07 04:32:21;;;;;;;7.90;1.70;;;;;;;15.90;100.00;101989.25;5014122;28;20054;-34
2022/07/07 04:34:50;;;;;;;6.93;1.75;;;;;;;15.91;100.00;102004.16;5014141;28;20555;-37
2022/07/07 04:37:18;;;;;;;9.52;1.65;;;;;;;15.93;100.00;101994.25;5014336;28;20084;-34
2022/07/07 04:39:46;;;;;;;10.40;2.05;;;;;;;15.96;100.00;101996.47;5013607;28;20062;-36
2022/07/07 04:42:14;;;;;;;6.15;1.23;;;;;;;15.94;100.00;102004.38;5014618;28;20065;-31
2022/07/07 04:44:41;;;;;;;8.32;1.65;;;;;;;15.94;100.00;102015.63;5014259;28;20037;-30
2022/07/07 04:47:09;;;;;;;5.93;1.10;;;;;;;15.91;100.00;101993.72;5013358;28;20096;-29
2022/07/07 04:49:37;;;;;;;6.90;1.15;;;;;;;15.91;100.00;102002.16;5014256;28;20072;-32
2022/07/07 04:52:07;;;;;;;8.32;1.65;;;;;;;15.96;100.00;102006.88;5013314;28;20058;-30
2022/07/07 04:54:34;;;;;;;5.15;1.50;;;;;;;16.00;100.00;102020.00;5014098;28;20491;-33
2022/07/07 04:57:02;;;;;;;6.57;1.13;;;;;;;16.04;100.00;102015.44;5010500;28;20137;-31
2022/07/07 04:59:30;;;;;;;6.15;1.20;;;;;;;16.06;100.00;102021.59;5013559;28;20046;-31
2022/07/07 05:01:58;;;;;;;11.45;1.83;;;;;;;16.06;100.00;102020.78;5013676;28;20069;-32
2022/07/07 05:04:26;;;;;;;9.25;1.42;;;;;;;16.05;100.00;102045.28;5012608;28;20160;-32
2022/07/07 05:06:54;;;;;;;6.38;1.10;;;;;;;16.03;100.00;102053.19;5012073;28;20042;-31
2022/07/07 05:09:23;;;;;;;5.47;1.08;;;;;;;15.97;100.00;102040.38;5013299;28;20475;-29
2022/07/07 05:11:51;;;;;;;5.55;0.98;;;;;;;15.92;100.00;102034.81;5012112;28;20093;-32
2022/07/07 05:14:19;;;;;;;7.55;1.23;;;;;;;15.89;100.00;102046.69;5012642;28;20054;-28
2022/07/07 05:16:47;;;;;;;8.65;1.60;;;;;;;15.85;100.00;102046.44;5012453;28;20046;-36
2022/07/07 05:19:14;;;;;;;11.45;2.20;;;;;;;15.90;100.00;102048.34;5012992;28;20046;-31
2022/07/07 05:21:42;;;;;;;9.43;1.75;;;;;;;15.92;100.00;102046.06;5009587;28;20504;-36
2022/07/07 05:24:10;;;;;;;9.63;1.52;;;;;;;15.93;100.00;102059.00;5013071;28;20121;-30
2022/07/07 05:26:39;;;;;;;9.60;1.70;;;;;;;15.95;100.00;102056.72;5012198;28;20153;-29
2022/07/07 05:29:07;;;;;;;9.20;1.40;;;;;;;15.94;100.00;102057.88;5012368;28;20050;-30
2022/07/07 05:31:35;;;;;;;7.50;1.50;;;;;;;15.95;100.00;102068.00;5012837;28;20050;-34
2022/07/07 05:34:03;;;;;;;7.40;1.73;;;;;;;15.97;100.00;102056.41;5012825;28;20044;-35
2022/07/07 05:36:32;;;;;;;9.38;1.25;;;;;;;15.96;100.00;102068.81;5013350;28;20038;-33
2022/07/07 05:39:00;;;;;;;8.10;1.30;;;;;;;15.99;100.00;102066.22;5013219;28;20407;-30
2022/07/07 05:41:28;;;;;;;11.68;1.77;;;;;;;16.09;100.00;102060.41;5012436;28;20052;-31
2022/07/07 05:43:57;;;;;;;7.72;1.40;;;;;;;16.17;100.00;102068.19;5012932;28;20129;-31
2022/07/07 05:46:25;;;;;;;10.20;1.85;;;;;;;16.19;100.00;102079.94;5013171;28;20050;-30
2022/07/07 05:48:52;;;;;;;7.22;1.35;;;;;;;16.16;100.00;102079.75;5012435;28;20046;-37
2022/07/07 05:51:20;;;;;;;8.73;1.80;;;;;;;16.18;100.00;102086.75;4993924;28;20061;-38
2022/07/07 05:53:48;;;;;;;8.60;1.88;;;;;;;16.22;100.00;102077.66;5012895;28;20061;-30
2022/07/07 05:56:16;;;;;;;9.10;1.70;;;;;;;16.31;100.00;102084.28;5012310;28;20054;-29
2022/07/07 05:58:44;;;;;;;10.77;1.60;;;;;;;16.35;100.00;102082.53;5012685;28;20053;-37
2022/07/07 06:01:14;;;;;;;7.00;1.42;;;;;;;16.35;100.00;102088.16;5013228;28;20048;-29
2022/07/07 06:03:41;;;;;;;6.90;1.85;;;;;;;16.37;100.00;102091.50;5011728;28;20141;-29
2022/07/07 06:06:09;;;;;;;6.10;1.10;;;;;;;16.39;100.00;102101.28;5013208;28;20458;-31
2022/07/07 06:08:37;;;;;;;7.95;1.38;;;;;;;16.41;100.00;102090.56;5012526;28;20052;-29
2022/07/07 06:11:05;;;;;;;7.22;1.50;;;;;;;16.49;100.00;102100.28;5012026;28;20447;-29
2022/07/07 06:13:33;;;;;;;12.50;2.00;;;;;;;16.57;100.00;102110.88;5012233;28;20396;-29
2022/07/07 06:16:01;;;;;;;10.80;1.30;;;;;;;16.55;100.00;102124.44;5012832;28;20084;-35
2022/07/07 06:18:30;;;;;;;8.82;1.60;;;;;;;16.52;100.00;102128.69;5011557;28;20042;-36
2022/07/07 06:20:58;;;;;;;8.02;1.17;;;;;;;16.49;100.00;102122.84;5012652;28;20100;-31
2022/07/07 06:23:25;;;;;;;4.70;0.90;;;;;;;16.48;100.00;102124.81;5011370;28;20068;-29
2022/07/07 06:25:54;;;;;;;5.88;1.10;;;;;;;16.56;100.00;102114.00;5012770;28;20167;-30
2022/07/07 06:28:21;;;;;;;5.32;0.90;;;;;;;16.60;100.00;102123.47;5012304;28;20054;-31
2022/07/07 06:30:53;;;;;;;5.47;0.90;;;;;;;16.65;100.00;102131.88;4997381;28;20509;-29
2022/07/07 06:33:21;;;;;;;4.90;0.95;;;;;;;16.81;100.00;102127.63;5012248;28;20088;-31
2022/07/07 06:35:50;;;;;;;5.03;0.80;;;;;;;16.99;100.00;102132.34;5012192;28;20132;-37
2022/07/07 06:38:18;;;;;;;5.15;0.90;;;;;;;17.04;100.00;102134.25;5011741;28;20049;-31
2022/07/07 06:40:46;;;;;;;5.07;1.00;;;;;;;17.04;100.00;102140.72;5012222;28;20050;-30
2022/07/07 06:43:17;;;;;;;6.57;1.03;;;;;;;17.07;100.00;102142.09;5012291;28;20068;-29
2022/07/07 06:45:46;;;;;;;4.80;0.90;;;;;;;17.12;100.00;102144.81;5011372;28;20671;-30
2022/07/07 06:48:13;;;;;;;6.93;1.02;;;;;;;17.31;100.00;102144.72;4992867;28;20043;-30
2022/07/07 06:50:42;;;;;;;7.32;1.10;;;;;;;17.44;100.00;102141.06;5011526;28;20057;-34
2022/07/07 06:53:11;;;;;;;5.15;1.00;;;;;;;17.42;100.00;102152.66;5011406;28;20189;-30
2022/07/07 06:55:39;;;;;;;5.03;1.00;;;;;;;17.30;100.00;102160.81;5011809;28;20566;-33
2022/07/07 06:58:07;;;;;;;5.57;0.90;;;;;;;17.17;100.00;102159.66;5012188;28;20050;-34
2022/07/07 07:00:35;;;;;;;4.25;0.80;;;;;;;17.08;100.00;102180.44;5010883;28;20081;-31
2022/07/07 07:03:03;;;;;;;5.22;0.90;;;;;;;17.05;100.00;102175.41;5011968;28;20060;-34
2022/07/07 07:05:31;;;;;;;5.40;1.10;;;;;;;17.11;100.00;102172.19;5011189;28;20080;-35
2022/07/07 07:07:59;;;;;;;5.07;0.85;;;;;;;17.21;100.00;102179.59;5018345;28;20049;-36
2022/07/07 07:10:28;;;;;;;7.82;1.58;;;;;;;17.34;100.00;102180.78;5011732;28;20060;-31
2022/07/07 07:12:56;;;;;;;6.53;1.50;;;;;;;17.50;100.00;102182.13;5011186;28;20070;-31
2022/07/07 07:15:24;;;;;;;7.97;1.20;;;;;;;17.63;100.00;102192.56;5011359;28;20092;-31
2022/07/07 07:17:52;;;;;;;7.07;1.10;;;;;;;17.65;100.00;102186.66;5012006;28;20528;-37
2022/07/07 07:20:20;;;;;;;4.68;0.88;;;;;;;17.66;100.00;102193.97;5010807;28;20173;-36
2022/07/07 07:22:48;;;;;;;6.22;1.02;;;;;;;17.66;100.00;102196.78;5011897;28;20066;-35
2022/07/07 07:25:15;;;;;;;4.38;0.82;;;;;;;17.62;100.00;102202.19;5011323;28;20499;-29
2022/07/07 07:27:45;;;;;;;6.00;0.80;;;;;;;17.61;100.00;102205.31;5010908;28;20165;-32
2022/07/07 07:30:14;;;;;;;5.03;1.02;;;;;;;17.62;100.00;102215.47;5011547;28;20129;-30
2022/07/07 07:32:42;;;;;;;5.18;1.27;;;;;;;17.67;100.00;102212.59;5011387;28;20137;-39
2022/07/07 07:35:11;;;;;;;5.95;1.20;;;;;;;17.81;100.00;102216.22;5010902;28;20124;-33
2022/07/07 07:37:39;;;;;;;6.85;1.20;;;;;;;17.95;100.00;102211.41;5011605;28;20054;-35
2022/07/07 07:40:09;;;;;;;6.72;1.20;;;;;;;17.98;100.00;102215.59;5011474;28;20137;-36
2022/07/07 07:42:38;;;;;;;8.18;1.50;;;;;;;17.94;100.00;102212.56;5010451;28;20057;-39
2022/07/07 07:45:11;;;;;;;5.20;1.42;;;;;;;17.86;100.00;102221.78;5011475;28;20046;-34
2022/07/07 07:47:41;;;;;;;6.13;1.58;;;;;;;17.82;100.00;102220.72;5010238;28;20050;-34
2022/07/07 07:50:12;;;;;;;7.63;1.67;;;;;;;17.82;100.00;102226.38;5015159;28;20553;-36
2022/07/07 07:52:41;;;;;;;8.18;1.60;;;;;;;17.95;100.00;102227.53;5014919;28;20081;-30
2022/07/07 07:55:11;;;;;;;9.05;1.63;;;;;;;18.34;100.00;102213.63;5014579;28;20046;-31
2022/07/07 07:57:39;;;;;;;8.88;1.50;;;;;;;18.53;100.00;102227.59;5015256;28;20070;-34
2022/07/07 08:00:12;;;;;;;8.40;1.45;;;;;;;18.56;100.00;102232.59;5015385;28;20112;-35
2022/07/07 08:02:39;;;;;;;7.68;1.30;;;;;;;18.63;100.00;102232.16;5014286;28;20140;-31
2022/07/07 08:05:10;;;;;;;6.78;1.33;;;;;;;18.64;100.00;102234.69;5015207;28;20132;-33
2022/07/07 08:07:38;;;;;;;6.90;1.40;;;;;;;18.54;100.00;102235.75;5014604;28;20084;-31
2022/07/07 08:10:08;;;;;;;9.35;1.83;;;;;;;18.47;100.00;102241.00;5014564;28;20141;-41
2022/07/07 08:12:35;;;;;;;7.38;1.50;;;;;;;18.57;100.00;102235.09;5014452;28;20052;-30
2022/07/07 08:15:05;;;;;;;10.13;1.70;;;;;;;18.74;100.00;102234.44;5014981;28;20064;-38
2022/07/07 08:17:34;;;;;;;8.32;1.70;;;;;;;18.84;100.00;102244.66;5013959;28;20138;-31
2022/07/07 08:20:03;;;;;;;9.38;1.40;;;;;;;18.95;100.00;102245.22;5014938;28;20058;-35
2022/07/07 08:22:31;;;;;;;11.60;1.70;;;;;;;19.14;100.00;102254.34;5014671;28;20137;-33
2022/07/07 08:24:59;;;;;;;11.25;1.98;;;;;;;19.38;100.00;102243.50;5014179;28;20085;-31
2022/07/07 08:27:27;;;;;;;8.80;1.85;;;;;;;19.53;100.00;102251.59;5014484;28;20133;-32
2022/07/07 08:29:55;;;;;;;10.82;1.63;;;;;;;19.59;100.00;102250.25;5014107;28;20406;-31
2022/07/07 08:32:22;;;;;;;7.57;1.65;;;;;;;19.63;100.00;102270.28;5014555;28;20073;-30
2022/07/07 08:34:52;;;;;;;11.48;1.75;;;;;;;19.59;100.00;102266.41;5014443;28;20052;-32
2022/07/07 08:37:21;;;;;;;6.95;1.40;;;;;;;19.54;100.00;102284.41;5014022;28;20058;-30
2022/07/07 08:39:49;;;;;;;10.57;1.90;;;;;;;19.45;100.00;102265.66;5014370;28;20198;-32
2022/07/07 08:42:17;;;;;;;8.52;1.30;;;;;;;19.53;100.00;102267.75;5014639;28;20085;-33
2022/07/07 08:44:45;;;;;;;10.13;1.52;;;;;;;19.82;100.00;102272.84;5013656;28;20046;-35
2022/07/07 08:47:13;;;;;;;5.25;1.15;;;;;;;20.16;100.00;102289.97;5014430;28;20137;-32
2022/07/07 08:49:41;;;;;;;3.88;0.60;;;;;;;20.11;100.00;102292.13;5014466;28;20056;-30
2022/07/07 08:52:10;;;;;;;3.20;0.80;;;;;;;19.85;100.00;102290.03;5013813;28;20141;-33
2022/07/07 08:54:40;;;;;;;4.75;1.10;;;;;;;19.61;100.00;102298.91;5014044;28;20038;-35
2022/07/07 08:57:08;;;;;;;6.55;1.02;;;;;;;19.49;100.00;102307.16;5014460;28;20137;-32
2022/07/07 08:59:36;;;;;;;9.25;1.20;;;;;;;19.44;100.00;102301.63;5012425;28;20148;-30
2022/07/07 09:02:09;;;;;;;5.22;1.00;;;;;;;19.45;100.00;102310.97;5013920;28;20525;-38
2022/07/07 09:04:37;;;;;;;6.45;0.85;;;;;;;19.34;100.00;102312.41;5013882;28;20046;-39
2022/07/07 09:07:06;;;;;;;6.18;0.90;;;;;;;19.36;100.00;102315.75;5013468;28;20077;-37
2022/07/07 09:09:44;;;;;;;5.22;0.70;;;;;;;19.68;100.00;102317.47;5013654;28;20048;-31
2022/07/07 09:12:15;;;;;;;4.80;0.80;;;;;;;20.10;100.00;102321.63;5013186;28;20295;-35
2022/07/07 09:14:44;;;;;;;7.80;1.30;;;;;;;20.54;100.00;102332.78;5013827;28;20049;-31
2022/07/07 09:17:19;;;;;;;7.75;1.10;;;;;;;20.83;98.97;102345.50;5014160;28;20132;-31
2022/07/07 09:19:59;;;;;;;5.43;1.13;;;;;;;20.78;97.57;102354.19;5013014;28;20045;-36
2022/07/07 09:22:47;;;;;;;3.85;0.75;;;;;;;20.47;99.37;102352.28;5013938;28;20056;-30
2022/07/07 09:25:19;;;;;;;7.13;1.10;;;;;;;20.23;100.00;102361.19;5013467;28;20048;-39
2022/07/07 09:27:55;;;;;;;5.60;1.17;;;;;;;20.02;100.00;102362.94;5013305;28;20136;-30
2022/07/07 09:30:28;;;;;;;7.82;1.25;;;;;;;19.72;100.00;102366.63;5013418;28;20073;-30
2022/07/07 09:32:56;;;;;;;8.05;1.23;;;;;;;19.48;100.00;102366.94;5013643;28;20145;-33
2022/07/07 09:38:14;;;;;;;6.32;1.42;;;;;;;19.38;100.00;102379.38;5013816;28;20161;-34
2022/07/07 09:40:52;;;;;;;9.27;1.48;;;;;;;19.43;100.00;102382.06;5012615;28;20046;-33
2022/07/07 09:43:21;;;;;;;8.80;1.80;;;;;;;19.45;100.00;102382.59;5013482;28;20084;-30
2022/07/07 09:45:49;;;;;;;7.28;1.60;;;;;;;19.58;100.00;102395.03;5012864;28;20044;-32
2022/07/07 09:48:17;;;;;;;7.72;1.70;;;;;;;19.52;100.00;102402.84;5012734;28;20053;-34
2022/07/07 09:50:45;;;;;;;11.38;1.80;;;;;;;19.40;100.00;102405.34;5012865;28;20045;-30
2022/07/07 09:53:13;;;;;;;11.98;2.10;;;;;;;19.18;99.02;102411.03;5013535;28;20085;-30
2022/07/07 09:55:42;;;;;;;7.70;1.60;;;;;;;19.03;97.71;102411.38;5012224;28;20392;-35
2022/07/07 09:58:12;;;;;;;8.88;2.15;;;;;;;19.01;97.40;102427.81;5013169;28;20058;-36
2022/07/07 10:00:40;;;;;;;7.70;1.70;;;;;;;19.06;95.48;102428.56;5012830;28;20050;-31
2022/07/07 10:03:08;;;;;;;7.00;1.65;;;;;;;19.14;93.91;102441.97;5012546;28;20041;-33
2022/07/07 10:05:36;;;;;;;8.30;1.48;;;;;;;19.17;92.23;102441.31;5012799;28;20415;-32
2022/07/07 10:08:04;;;;;;;14.25;2.55;;;;;;;19.20;89.97;102443.50;5012910;28;20553;-42
2022/07/07 10:10:32;;;;;;;11.93;1.92;;;;;;;19.34;89.19;102445.47;5011770;28;20070;-32
2022/07/07 10:13:03;;;;;;;7.72;1.65;;;;;;;19.40;86.87;102455.47;5012337;28;20058;-38
2022/07/07 10:15:32;;;;;;;8.50;1.77;;;;;;;19.45;84.69;102446.88;5012078;28;20408;-37
2022/07/07 10:18:01;;;;;;;10.52;1.60;;;;;;;19.55;83.51;102458.81;5012697;28;20141;-31
2022/07/07 10:20:29;;;;;;;9.38;1.85;;;;;;;19.64;81.86;102472.19;5012627;28;20487;-34
2022/07/07 10:22:57;;;;;;;11.00;1.67;;;;;;;19.77;82.75;102472.16;5011581;28;20150;-31
2022/07/07 10:25:25;;;;;;;10.27;1.85;;;;;;;19.90;82.48;102481.72;5012663;28;20199;-33
2022/07/07 10:27:54;;;;;;;14.07;2.45;;;;;;;19.98;82.99;102482.97;5012241;28;20064;-33
2022/07/07 10:30:29;;;;;;;13.40;2.13;;;;;;;20.01;82.80;102493.63;5011783;28;20041;-35
2022/07/07 10:32:59;;;;;;;10.80;2.13;;;;;;;19.99;83.21;102491.09;5012160;28;20053;-34
2022/07/07 10:35:27;;;;;;;11.50;2.30;;;;;;;19.88;81.44;102496.22;5012438;28;20045;-38
2022/07/07 10:37:57;;;;;;;7.25;2.00;;;;;;;19.75;81.33;102510.44;5011114;28;20045;-39
2022/07/07 10:40:27;;;;;;;12.88;2.40;;;;;;;19.67;81.39;102517.72;5012474;28;20133;-32
2022/07/07 10:43:20;;;;;;;11.10;2.35;;;;;;;19.67;80.30;102519.72;5011923;28;20573;-37
2022/07/07 10:45:51;;;;;;;9.30;1.77;;;;;;;19.76;79.46;102512.13;5011623;28;20053;-32
2022/07/07 10:48:43;;;;;;;9.35;1.90;;;;;;;19.90;76.39;102521.41;5011828;28;20077;-31
2022/07/07 10:51:19;;;;;;;7.38;1.58;;;;;;;20.15;77.18;102517.91;5011611;28;20089;-31
2022/07/07 10:54:00;;;;;;;10.82;2.10;;;;;;;20.64;75.52;102530.19;5010916;28;20541;-40
2022/07/07 10:56:28;;;;;;;9.40;1.70;;;;;;;21.03;73.73;102528.50;5012170;28;20148;-34
2022/07/07 10:59:00;;;;;;;7.75;1.60;;;;;;;21.41;71.65;102537.28;5011067;28;20296;-33
2022/07/07 11:01:31;;;;;;;9.27;2.10;;;;;;;21.88;69.40;102539.13;5012493;28;20045;-35
2022/07/07 11:04:01;;;;;;;5.88;1.77;;;;;;;22.19;66.26;102530.41;5011618;28;20056;-32
2022/07/07 11:06:29;;;;;;;7.00;1.30;;;;;;;22.34;64.85;102537.59;5011460;28;20057;-30
2022/07/07 11:09:00;;;;;;;8.18;1.40;;;;;;;22.68;64.30;102542.31;5011304;28;20041;-39
2022/07/07 11:11:29;;;;;;;12.75;2.10;;;;;;;22.92;62.66;102547.44;5012106;28;20082;-30
2022/07/07 11:14:09;;;;;;;8.35;1.52;;;;;;;22.92;60.81;102565.38;5010924;28;20053;-35
2022/07/07 11:16:39;;;;;;;7.28;1.60;;;;;;;22.65;61.94;102566.59;5012042;28;20081;-37
2022/07/07 11:19:10;;;;;;;11.75;2.25;;;;;;;22.44;62.64;102554.28;5010732;28;20058;-31
2022/07/07 11:21:43;;;;;;;9.13;1.90;;;;;;;22.17;63.68;102569.75;5012158;28;20054;-30
2022/07/07 11:24:16;;;;;;;9.57;1.80;;;;;;;21.89;65.24;102572.06;5009565;28;20671;-34
2022/07/07 11:26:54;;;;;;;9.93;2.03;;;;;;;21.67;65.24;102573.06;5011191;28;20068;-39
2022/07/07 11:29:22;;;;;;;12.65;2.08;;;;;;;21.54;66.08;102579.75;5011350;28;20046;-39